Portada
METAR-TAF:

METAR-TAF

Aeroports :

Juliaca, Perú

latitud: 15-29S, longitud: 070-09W, altitud: 3826 m

Observació

L'informe es va fer fa 3 hores i 58 minuts, a les 23:00 UTC
Vent 7 kt del Nord/Nord-Est
Temperatura 11°C
Humitat 62%
Pressió 1031 hPa
Visibilitat 10 km o més
Núvols disperses a una alçada de 2000 ft
Cel ennuvolat a una alçada de 10000 ft

METAR: SPJL 082300Z 02007KT 9999 SCT020 BKN100 11/04 Q1031 RMK PP000

Hora: 21:58 (02:58 UTC)

Pronòstic

L'informe es va fer fa 9 hores i 58 minuts, a les 17:00 UTC
Pronòstic vàlid del 08 a les 18 UTC al 09 a les 18 UTC
Vent 11 kt del Est/Sud-Est
Visibilitat 10 km o més
Cel ennuvolat a una alçada de 2000 ft
Temporalment
l' 08 a les 22 UTC al 08 a les 24 UTC
pluja
Evolucionant progressivament
l' 09 a les 01 UTC al 09 a les 02 UTC
Vent 4 kt del Nord

TAF: SPJL 081700Z 0818/0918 11011KT 9999 BKN020 TX16/0819Z TN05/0910Z TEMPO 0822/0824 RA BECMG 0901/0902 35004KT

Observacions i pronòstics meteorològics de més de 4000 aeroports (METAR i TAF).

Les estacions disponibles són els punts grocs i vermells al mapa.

Posi el ratolí al punt desitjat per veure el nom de l'estació.

Feu clic per veure les observacions i els pronòstics meteorològics.

Per canviar el mapa: feu clic els botons verds amb una creu de color negre per apropar; al botó verd amb un guió per allunyar la imatge; o en les fletxes verdes per a mapes adjacents.


METAR-TAF: